sensor_id;sensor_type;location;lat;lon;timestamp;pressure;altitude;pressure_sealevel;temperature;humidity
62703;BME280;66022;50.448;18.122;2023-02-19T00:00:51;98961.35;;;8.13;91.00
62703;BME280;66022;50.448;18.122;2023-02-19T00:05:05;98964.51;;;8.12;90.89
62703;BME280;66022;50.448;18.122;2023-02-19T00:09:19;98967.10;;;8.09;91.45
62703;BME280;66022;50.448;18.122;2023-02-19T00:13:36;98971.59;;;8.10;91.39
62703;BME280;66022;50.448;18.122;2023-02-19T00:17:47;98975.56;;;8.08;93.84
62703;BME280;66022;50.448;18.122;2023-02-19T00:22:01;98978.41;;;8.09;91.38
62703;BME280;66022;50.448;18.122;2023-02-19T00:26:15;98980.32;;;8.09;91.22
62703;BME280;66022;50.448;18.122;2023-02-19T00:30:29;98981.48;;;8.09;91.78
62703;BME280;66022;50.448;18.122;2023-02-19T00:34:43;98981.37;;;8.10;91.50
62703;BME280;66022;50.448;18.122;2023-02-19T00:38:57;98979.85;;;8.07;92.62
62703;BME280;66022;50.448;18.122;2023-02-19T00:43:11;98978.64;;;8.08;91.99
62703;BME280;66022;50.448;18.122;2023-02-19T00:47:25;98977.42;;;8.06;95.88
62703;BME280;66022;50.448;18.122;2023-02-19T00:51:42;98975.31;;;8.08;92.29
62703;BME280;66022;50.448;18.122;2023-02-19T00:55:53;98973.71;;;8.08;92.01
62703;BME280;66022;50.448;18.122;2023-02-19T01:00:08;98973.22;;;8.09;92.40
62703;BME280;66022;50.448;18.122;2023-02-19T01:04:21;98973.13;;;8.09;92.23
62703;BME280;66022;50.448;18.122;2023-02-19T01:08:35;98972.14;;;8.08;92.98
62703;BME280;66022;50.448;18.122;2023-02-19T01:12:49;98970.94;;;8.09;91.76
62703;BME280;66022;50.448;18.122;2023-02-19T01:17:03;98970.01;;;8.05;94.97
62703;BME280;66022;50.448;18.122;2023-02-19T01:21:18;98967.17;;;8.05;91.58
62703;BME280;66022;50.448;18.122;2023-02-19T01:25:31;98965.48;;;8.05;91.28
62703;BME280;66022;50.448;18.122;2023-02-19T01:29:45;98966.69;;;8.03;91.95
62703;BME280;66022;50.448;18.122;2023-02-19T01:34:00;98966.94;;;8.03;91.20
62703;BME280;66022;50.448;18.122;2023-02-19T01:38:13;98965.78;;;8.01;92.65
62703;BME280;66022;50.448;18.122;2023-02-19T01:42:27;98965.22;;;8.02;91.35
62703;BME280;66022;50.448;18.122;2023-02-19T01:46:43;98964.03;;;7.98;94.20
62703;BME280;66022;50.448;18.122;2023-02-19T01:50:57;98960.66;;;7.99;91.45
62703;BME280;66022;50.448;18.122;2023-02-19T01:55:09;98956.62;;;7.99;91.50
62703;BME280;66022;50.448;18.122;2023-02-19T01:59:23;98952.04;;;7.97;91.96
62703;BME280;66022;50.448;18.122;2023-02-19T02:03:40;98947.53;;;7.98;91.48
62703;BME280;66022;50.448;18.122;2023-02-19T02:07:51;98942.02;;;7.97;93.62
62703;BME280;66022;50.448;18.122;2023-02-19T02:12:06;98934.25;;;7.98;91.34
62703;BME280;66022;50.448;18.122;2023-02-19T02:16:23;98926.54;;;7.97;91.48
62703;BME280;66022;50.448;18.122;2023-02-19T02:37:31;98903.45;;;7.87;94.85
62703;BME280;66022;50.448;18.122;2023-02-19T02:41:45;98898.94;;;7.88;92.26
62703;BME280;66022;50.448;18.122;2023-02-19T02:45:57;98894.31;;;7.89;91.90
62703;BME280;66022;50.448;18.122;2023-02-19T02:54:26;98881.58;;;7.91;92.02
62703;BME280;66022;50.448;18.122;2023-02-19T02:58:39;98876.98;;;7.89;93.24
62703;BME280;66022;50.448;18.122;2023-02-19T03:02:53;98872.69;;;7.91;92.20
62703;BME280;66022;50.448;18.122;2023-02-19T03:07:07;98870.04;;;7.89;96.38
62703;BME280;66022;50.448;18.122;2023-02-19T03:11:21;98870.09;;;7.92;92.11
62703;BME280;66022;50.448;18.122;2023-02-19T03:15:36;98869.89;;;7.94;91.96
62703;BME280;66022;50.448;18.122;2023-02-19T03:19:50;98869.98;;;7.94;92.56
62703;BME280;66022;50.448;18.122;2023-02-19T03:24:03;98868.27;;;7.96;92.03
62703;BME280;66022;50.448;18.122;2023-02-19T03:28:17;98867.60;;;7.95;94.11
62703;BME280;66022;50.448;18.122;2023-02-19T03:32:36;98865.32;;;7.97;92.28
62703;BME280;66022;50.448;18.122;2023-02-19T03:36:47;98860.10;;;7.93;95.69
62703;BME280;66022;50.448;18.122;2023-02-19T03:53:48;98836.39;;;8.01;91.72
62703;BME280;66022;50.448;18.122;2023-02-19T03:57:57;98830.00;;;8.01;93.56
62703;BME280;66022;50.448;18.122;2023-02-19T04:06:27;98820.15;;;8.05;91.41
62703;BME280;66022;50.448;18.122;2023-02-19T04:10:37;98817.14;;;8.05;92.03
62703;BME280;66022;50.448;18.122;2023-02-19T04:14:52;98816.47;;;8.05;91.79
62703;BME280;66022;50.448;18.122;2023-02-19T04:19:07;98813.25;;;7.99;92.77
62703;BME280;66022;50.448;18.122;2023-02-19T04:23:19;98808.37;;;7.99;91.78
62703;BME280;66022;50.448;18.122;2023-02-19T04:27:39;98802.96;;;8.00;93.65
62703;BME280;66022;50.448;18.122;2023-02-19T04:31:47;98796.59;;;8.03;91.21
62703;BME280;66022;50.448;18.122;2023-02-19T04:36:01;98789.78;;;8.06;91.09
62703;BME280;66022;50.448;18.122;2023-02-19T04:40:15;98784.55;;;8.07;91.77
62703;BME280;66022;50.448;18.122;2023-02-19T04:44:29;98781.16;;;8.06;92.20
62703;BME280;66022;50.448;18.122;2023-02-19T04:48:43;98778.94;;;8.00;93.24
62703;BME280;66022;50.448;18.122;2023-02-19T04:52:57;98779.94;;;7.99;92.43
62703;BME280;66022;50.448;18.122;2023-02-19T04:57:11;98779.69;;;7.95;96.11
62703;BME280;66022;50.448;18.122;2023-02-19T05:01:25;98780.35;;;7.95;92.90
62703;BME280;66022;50.448;18.122;2023-02-19T05:05:40;98779.13;;;7.93;92.55
62703;BME280;66022;50.448;18.122;2023-02-19T05:09:53;98776.57;;;7.92;93.00
62703;BME280;66022;50.448;18.122;2023-02-19T05:14:07;98774.58;;;7.91;92.53
62703;BME280;66022;50.448;18.122;2023-02-19T05:18:22;98769.92;;;7.91;93.83
62703;BME280;66022;50.448;18.122;2023-02-19T05:22:35;98764.64;;;7.91;92.68
62703;BME280;66022;50.448;18.122;2023-02-19T05:26:49;98760.52;;;7.87;96.59
62703;BME280;66022;50.448;18.122;2023-02-19T05:31:06;98757.23;;;7.88;93.23
62703;BME280;66022;50.448;18.122;2023-02-19T05:35:17;98755.89;;;7.89;92.84
62703;BME280;66022;50.448;18.122;2023-02-19T05:39:31;98753.33;;;7.88;93.41
62703;BME280;66022;50.448;18.122;2023-02-19T05:43:45;98752.01;;;7.91;92.54
62703;BME280;66022;50.448;18.122;2023-02-19T05:47:59;98750.34;;;7.91;94.70
62703;BME280;66022;50.448;18.122;2023-02-19T05:52:13;98748.49;;;7.91;93.01
62703;BME280;66022;50.448;18.122;2023-02-19T06:00:41;98744.97;;;7.87;94.06
62703;BME280;66022;50.448;18.122;2023-02-19T06:04:55;98741.46;;;7.86;93.40
62703;BME280;66022;50.448;18.122;2023-02-19T06:09:09;98738.02;;;7.83;94.09
62703;BME280;66022;50.448;18.122;2023-02-19T06:13:23;98735.88;;;7.85;93.08
62703;BME280;66022;50.448;18.122;2023-02-19T06:17:37;98733.29;;;7.85;95.81
62703;BME280;66022;50.448;18.122;2023-02-19T06:21:51;98731.61;;;7.86;93.18
62703;BME280;66022;50.448;18.122;2023-02-19T06:26:09;98730.29;;;7.85;93.02
62703;BME280;66022;50.448;18.122;2023-02-19T06:30:19;98727.29;;;7.85;93.31
62703;BME280;66022;50.448;18.122;2023-02-19T06:34:33;98725.99;;;7.86;93.04
62703;BME280;66022;50.448;18.122;2023-02-19T06:38:47;98724.52;;;7.84;93.88
62703;BME280;66022;50.448;18.122;2023-02-19T06:43:01;98723.91;;;7.87;93.11
62703;BME280;66022;50.448;18.122;2023-02-19T06:47:15;98723.65;;;7.87;96.93
62703;BME280;66022;50.448;18.122;2023-02-19T06:51:29;98723.72;;;7.91;92.94
62703;BME280;66022;50.448;18.122;2023-02-19T06:55:43;98723.88;;;7.95;92.74
62703;BME280;66022;50.448;18.122;2023-02-19T06:59:57;98724.07;;;7.99;93.18
62703;BME280;66022;50.448;18.122;2023-02-19T07:04:11;98723.32;;;8.03;92.58
62703;BME280;66022;50.448;18.122;2023-02-19T07:08:25;98722.55;;;8.07;93.70
62703;BME280;66022;50.448;18.122;2023-02-19T07:12:39;98721.32;;;8.11;92.63
62703;BME280;66022;50.448;18.122;2023-02-19T07:16:55;98720.47;;;8.11;95.94
62703;BME280;66022;50.448;18.122;2023-02-19T07:21:08;98719.80;;;8.15;92.67
62703;BME280;66022;50.448;18.122;2023-02-19T07:25:21;98717.77;;;8.21;92.26
62703;BME280;66022;50.448;18.122;2023-02-19T07:29:35;98715.06;;;8.25;93.10
62703;BME280;66022;50.448;18.122;2023-02-19T07:33:49;98711.25;;;8.32;92.37
62703;BME280;66022;50.448;18.122;2023-02-19T07:38:03;98708.26;;;8.37;94.49
62703;BME280;66022;50.448;18.122;2023-02-19T07:42:17;98706.27;;;8.43;92.95
62703;BME280;66022;50.448;18.122;2023-02-19T07:46:31;98706.81;;;8.45;94.81
62703;BME280;66022;50.448;18.122;2023-02-19T07:54:59;98709.01;;;8.51;93.12
62703;BME280;66022;50.448;18.122;2023-02-19T07:59:13;98710.11;;;8.51;94.45
62703;BME280;66022;50.448;18.122;2023-02-19T08:03:27;98710.64;;;8.53;93.56
62703;BME280;66022;50.448;18.122;2023-02-19T08:07:41;98712.67;;;8.52;96.19
62703;BME280;66022;50.448;18.122;2023-02-19T08:11:55;98716.16;;;8.54;93.52
62703;BME280;66022;50.448;18.122;2023-02-19T08:16:10;98718.89;;;8.55;93.50
62703;BME280;66022;50.448;18.122;2023-02-19T08:20:23;98722.16;;;8.54;94.10
62703;BME280;66022;50.448;18.122;2023-02-19T08:24:37;98725.18;;;8.54;93.35
62703;BME280;66022;50.448;18.122;2023-02-19T08:28:51;98727.84;;;8.50;94.27
62703;BME280;66022;50.448;18.122;2023-02-19T08:33:06;98730.53;;;8.50;92.51
62703;BME280;66022;50.448;18.122;2023-02-19T08:37:19;98734.32;;;8.46;94.41
62703;BME280;66022;50.448;18.122;2023-02-19T08:41:33;98737.35;;;8.44;91.68
62703;BME280;66022;50.448;18.122;2023-02-19T08:45:47;98740.61;;;8.41;91.83
62703;BME280;66022;50.448;18.122;2023-02-19T08:50:01;98742.85;;;8.37;92.10
62703;BME280;66022;50.448;18.122;2023-02-19T08:54:15;98746.26;;;8.34;91.79
62703;BME280;66022;50.448;18.122;2023-02-19T08:58:29;98750.74;;;8.31;93.09
62703;BME280;66022;50.448;18.122;2023-02-19T09:02:43;98755.88;;;8.31;92.05
62703;BME280;66022;50.448;18.122;2023-02-19T09:06:57;98758.39;;;8.26;95.49
62703;BME280;66022;50.448;18.122;2023-02-19T09:11:15;98760.74;;;8.26;92.05
62703;BME280;66022;50.448;18.122;2023-02-19T09:15:25;98763.42;;;8.26;91.82
62703;BME280;66022;50.448;18.122;2023-02-19T09:19:39;98766.71;;;8.25;92.59
62703;BME280;66022;50.448;18.122;2023-02-19T09:23:53;98770.96;;;8.26;91.82
62703;BME280;66022;50.448;18.122;2023-02-19T09:28:07;98777.06;;;8.25;92.12
62703;BME280;66022;50.448;18.122;2023-02-19T09:32:21;98783.14;;;8.23;88.89
62703;BME280;66022;50.448;18.122;2023-02-19T09:36:35;98790.08;;;8.15;90.55
62703;BME280;66022;50.448;18.122;2023-02-19T09:40:49;98798.14;;;8.10;89.41
62703;BME280;66022;50.448;18.122;2023-02-19T09:45:03;98806.48;;;8.03;89.34
62703;BME280;66022;50.448;18.122;2023-02-19T09:53:33;98824.93;;;7.83;88.65
62703;BME280;66022;50.448;18.122;2023-02-19T09:57:45;98833.23;;;7.72;89.90
62703;BME280;66022;50.448;18.122;2023-02-19T10:10:30;98855.67;;;7.54;88.44
62703;BME280;66022;50.448;18.122;2023-02-19T10:14:43;98861.21;;;7.55;87.97
62703;BME280;66022;50.448;18.122;2023-02-19T10:18:55;98866.61;;;7.50;89.14
62703;BME280;66022;50.448;18.122;2023-02-19T10:23:09;98873.97;;;7.51;87.74
62703;BME280;66022;50.448;18.122;2023-02-19T10:27:28;98881.25;;;7.54;87.90
62703;BME280;66022;50.448;18.122;2023-02-19T10:31:37;98888.03;;;7.79;84.35
62703;BME280;66022;50.448;18.122;2023-02-19T10:35:53;98895.33;;;8.03;82.95
62703;BME280;66022;50.448;18.122;2023-02-19T10:40:10;98902.53;;;8.17;84.07
62703;BME280;66022;50.448;18.122;2023-02-19T10:44:20;98908.78;;;8.27;82.62
62703;BME280;66022;50.448;18.122;2023-02-19T10:48:34;98913.23;;;8.31;83.83
62703;BME280;66022;50.448;18.122;2023-02-19T10:52:50;98919.05;;;8.37;82.92
62703;BME280;66022;50.448;18.122;2023-02-19T11:01:19;98932.30;;;8.31;83.32
62703;BME280;66022;50.448;18.122;2023-02-19T11:05:29;98938.26;;;8.25;84.46
62703;BME280;66022;50.448;18.122;2023-02-19T11:09:44;98947.99;;;8.16;83.96
62703;BME280;66022;50.448;18.122;2023-02-19T11:13:58;98955.92;;;8.06;82.97
62703;BME280;66022;50.448;18.122;2023-02-19T11:22:29;98974.45;;;7.82;85.02
62703;BME280;66022;50.448;18.122;2023-02-19T11:26:39;98983.88;;;7.68;87.86
62703;BME280;66022;50.448;18.122;2023-02-19T11:30:53;98991.25;;;7.62;85.78
62703;BME280;66022;50.448;18.122;2023-02-19T11:39:27;99009.20;;;7.45;86.17
62703;BME280;66022;50.448;18.122;2023-02-19T11:56:20;99027.98;;;7.28;85.25
62703;BME280;66022;50.448;18.122;2023-02-19T12:00:32;99034.64;;;7.25;84.53
62703;BME280;66022;50.448;18.122;2023-02-19T12:09:02;99043.20;;;7.14;81.93
62703;BME280;66022;50.448;18.122;2023-02-19T12:38:47;99072.58;;;7.15;81.19
62703;BME280;66022;50.448;18.122;2023-02-19T12:47:09;99079.75;;;7.18;82.69
62703;BME280;66022;50.448;18.122;2023-02-19T12:55:38;99088.39;;;7.23;81.46
62703;BME280;66022;50.448;18.122;2023-02-19T13:08:22;99108.75;;;7.24;80.12
62703;BME280;66022;50.448;18.122;2023-02-19T13:12:39;99115.86;;;7.24;80.65
62703;BME280;66022;50.448;18.122;2023-02-19T13:16:46;99122.77;;;7.18;80.51
62703;BME280;66022;50.448;18.122;2023-02-19T13:20:58;99128.80;;;7.17;80.27
62703;BME280;66022;50.448;18.122;2023-02-19T13:25:13;99133.58;;;7.15;80.48
62703;BME280;66022;50.448;18.122;2023-02-19T13:29:31;99138.55;;;7.12;81.24
62703;BME280;66022;50.448;18.122;2023-02-19T13:37:54;99148.25;;;7.18;80.16
62703;BME280;66022;50.448;18.122;2023-02-19T13:42:10;99151.79;;;7.23;78.80
62703;BME280;66022;50.448;18.122;2023-02-19T13:46:22;99156.37;;;7.26;78.47
62703;BME280;66022;50.448;18.122;2023-02-19T13:50:37;99161.03;;;7.26;79.34
62703;BME280;66022;50.448;18.122;2023-02-19T13:54:50;99167.13;;;7.28;79.24
62703;BME280;66022;50.448;18.122;2023-02-19T14:16:00;99196.06;;;7.27;79.47
62703;BME280;66022;50.448;18.122;2023-02-19T14:24:28;99204.71;;;7.23;79.24
62703;BME280;66022;50.448;18.122;2023-02-19T14:28:43;99209.18;;;7.18;79.38
62703;BME280;66022;50.448;18.122;2023-02-19T14:32:57;99214.73;;;7.15;77.79
62703;BME280;66022;50.448;18.122;2023-02-19T14:41:25;99224.00;;;7.05;78.83
62703;BME280;66022;50.448;18.122;2023-02-19T14:45:41;99228.30;;;7.02;78.24
62703;BME280;66022;50.448;18.122;2023-02-19T14:49:53;99233.17;;;6.98;78.30
62703;BME280;66022;50.448;18.122;2023-02-19T14:58:25;99242.64;;;6.90;77.66
62703;BME280;66022;50.448;18.122;2023-02-19T15:02:40;99247.11;;;6.86;77.72
62703;BME280;66022;50.448;18.122;2023-02-19T15:06:48;99253.19;;;6.77;78.11
62703;BME280;66022;50.448;18.122;2023-02-19T15:11:07;99257.79;;;6.74;78.14
62703;BME280;66022;50.448;18.122;2023-02-19T15:19:36;99270.71;;;6.64;79.21
62703;BME280;66022;50.448;18.122;2023-02-19T15:23:45;99278.27;;;6.61;78.43
62703;BME280;66022;50.448;18.122;2023-02-19T15:32:15;99292.26;;;6.52;77.90
62703;BME280;66022;50.448;18.122;2023-02-19T15:36:28;99299.95;;;6.47;79.00
62703;BME280;66022;50.448;18.122;2023-02-19T15:40:42;99306.49;;;6.42;79.51
62703;BME280;66022;50.448;18.122;2023-02-19T15:49:16;99320.07;;;6.28;80.13
62703;BME280;66022;50.448;18.122;2023-02-19T15:53:23;99326.93;;;6.25;79.94
62703;BME280;66022;50.448;18.122;2023-02-19T15:57:37;99333.18;;;6.19;81.04
62703;BME280;66022;50.448;18.122;2023-02-19T16:01:51;99340.45;;;6.15;79.79
62703;BME280;66022;50.448;18.122;2023-02-19T16:10:23;99356.67;;;6.04;79.01
62703;BME280;66022;50.448;18.122;2023-02-19T16:14:37;99364.72;;;5.99;78.58
62703;BME280;66022;50.448;18.122;2023-02-19T16:18:48;99372.79;;;5.89;77.88
62703;BME280;66022;50.448;18.122;2023-02-19T16:23:03;99380.77;;;5.85;78.43
62703;BME280;66022;50.448;18.122;2023-02-19T16:31:29;99398.66;;;5.69;78.80
62703;BME280;66022;50.448;18.122;2023-02-19T16:35:43;99408.33;;;5.61;79.09
62703;BME280;66022;50.448;18.122;2023-02-19T16:44:29;99430.39;;;5.42;78.44
62703;BME280;66022;50.448;18.122;2023-02-19T16:48:25;99439.11;;;5.32;79.36
62703;BME280;66022;50.448;18.122;2023-02-19T16:52:49;99447.58;;;5.25;78.68
62703;BME280;66022;50.448;18.122;2023-02-19T16:56:54;99455.98;;;5.13;78.15
62703;BME280;66022;50.448;18.122;2023-02-19T17:01:06;99463.79;;;5.05;78.16
62703;BME280;66022;50.448;18.122;2023-02-19T17:05:21;99471.17;;;4.98;76.82
62703;BME280;66022;50.448;18.122;2023-02-19T17:09:35;99477.45;;;4.89;76.65
62703;BME280;66022;50.448;18.122;2023-02-19T17:13:49;99484.75;;;4.84;76.41
62703;BME280;66022;50.448;18.122;2023-02-19T17:18:04;99491.94;;;4.75;76.08
62703;BME280;66022;50.448;18.122;2023-02-19T17:22:17;99499.10;;;4.68;76.42
62703;BME280;66022;50.448;18.122;2023-02-19T17:26:31;99506.71;;;4.60;76.13
62703;BME280;66022;50.448;18.122;2023-02-19T17:30:45;99514.39;;;4.53;76.60
62703;BME280;66022;50.448;18.122;2023-02-19T17:34:59;99522.60;;;4.47;77.29
62703;BME280;66022;50.448;18.122;2023-02-19T17:39:13;99532.00;;;4.36;77.21
62703;BME280;66022;50.448;18.122;2023-02-19T17:43:27;99539.61;;;4.31;77.77
62703;BME280;66022;50.448;18.122;2023-02-19T17:47:41;99546.55;;;4.23;78.62
62703;BME280;66022;50.448;18.122;2023-02-19T17:51:55;99553.41;;;4.17;78.09
62703;BME280;66022;50.448;18.122;2023-02-19T17:56:09;99559.77;;;4.12;77.92
62703;BME280;66022;50.448;18.122;2023-02-19T18:00:26;99564.34;;;4.04;78.38
62703;BME280;66022;50.448;18.122;2023-02-19T18:04:37;99570.12;;;3.99;78.34
62703;BME280;66022;50.448;18.122;2023-02-19T18:08:51;99576.51;;;3.89;78.57
62703;BME280;66022;50.448;18.122;2023-02-19T18:13:05;99582.79;;;3.86;78.66
62703;BME280;66022;50.448;18.122;2023-02-19T18:17:27;99587.52;;;3.77;78.11
62703;BME280;66022;50.448;18.122;2023-02-19T18:21:33;99592.52;;;3.71;78.88
62703;BME280;66022;50.448;18.122;2023-02-19T18:25:47;99596.95;;;3.64;77.99
62703;BME280;66022;50.448;18.122;2023-02-19T18:30:04;99602.72;;;3.55;78.17
62703;BME280;66022;50.448;18.122;2023-02-19T18:38:29;99611.24;;;3.42;79.44
62703;BME280;66022;50.448;18.122;2023-02-19T18:46:57;99617.13;;;3.29;80.68
62703;BME280;66022;50.448;18.122;2023-02-19T18:51:11;99622.00;;;3.27;79.64
62703;BME280;66022;50.448;18.122;2023-02-19T18:55:28;99627.70;;;3.26;79.17
62703;BME280;66022;50.448;18.122;2023-02-19T18:59:42;99633.49;;;3.25;79.52
62703;BME280;66022;50.448;18.122;2023-02-19T19:03:56;99639.25;;;3.26;79.37
62703;BME280;66022;50.448;18.122;2023-02-19T19:08:07;99644.32;;;3.26;80.03
62703;BME280;66022;50.448;18.122;2023-02-19T19:12:26;99649.91;;;3.28;79.74
62703;BME280;66022;50.448;18.122;2023-02-19T19:16:40;99655.22;;;3.27;81.18
62703;BME280;66022;50.448;18.122;2023-02-19T19:20:49;99660.89;;;3.29;80.58
62703;BME280;66022;50.448;18.122;2023-02-19T19:25:06;99665.73;;;3.31;80.17
62703;BME280;66022;50.448;18.122;2023-02-19T19:29:20;99668.53;;;3.30;79.98
62703;BME280;66022;50.448;18.122;2023-02-19T19:33:31;99670.90;;;3.33;80.53
62703;BME280;66022;50.448;18.122;2023-02-19T19:37:45;99672.27;;;3.35;81.77
62703;BME280;66022;50.448;18.122;2023-02-19T19:41:59;99675.80;;;3.39;80.22
62703;BME280;66022;50.448;18.122;2023-02-19T19:46:13;99676.84;;;3.42;78.92
62703;BME280;66022;50.448;18.122;2023-02-19T19:50:28;99677.73;;;3.46;79.99
62703;BME280;66022;50.448;18.122;2023-02-19T19:54:41;99679.10;;;3.50;79.57
62703;BME280;66022;50.448;18.122;2023-02-19T19:58:57;99679.69;;;3.51;79.41
62703;BME280;66022;50.448;18.122;2023-02-19T20:03:09;99682.53;;;3.57;79.01
62703;BME280;66022;50.448;18.122;2023-02-19T20:07:24;99685.46;;;3.59;80.79
62703;BME280;66022;50.448;18.122;2023-02-19T20:15:51;99689.31;;;3.68;78.12
62703;BME280;66022;50.448;18.122;2023-02-19T20:20:05;99691.99;;;3.72;78.45
62703;BME280;66022;50.448;18.122;2023-02-19T20:24:23;99696.30;;;3.76;78.99
62703;BME280;66022;50.448;18.122;2023-02-19T20:28:36;99701.47;;;3.79;79.44
62703;BME280;66022;50.448;18.122;2023-02-19T20:32:47;99705.67;;;3.83;79.38
62703;BME280;66022;50.448;18.122;2023-02-19T20:37:03;99708.98;;;3.80;80.22
62703;BME280;66022;50.448;18.122;2023-02-19T20:41:16;99712.00;;;3.82;79.54
62703;BME280;66022;50.448;18.122;2023-02-19T20:45:33;99714.76;;;3.83;79.72
62703;BME280;66022;50.448;18.122;2023-02-19T20:58:14;99722.39;;;3.81;80.19
62703;BME280;66022;50.448;18.122;2023-02-19T21:02:25;99727.04;;;3.82;79.42
62703;BME280;66022;50.448;18.122;2023-02-19T21:06:39;99732.50;;;3.79;79.40
62703;BME280;66022;50.448;18.122;2023-02-19T21:10:53;99738.05;;;3.78;79.61
62703;BME280;66022;50.448;18.122;2023-02-19T21:15:07;99742.35;;;3.77;79.12
62703;BME280;66022;50.448;18.122;2023-02-19T21:19:21;99748.92;;;3.71;79.80
62703;BME280;66022;50.448;18.122;2023-02-19T21:23:35;99755.56;;;3.71;78.91
62703;BME280;66022;50.448;18.122;2023-02-19T21:27:49;99762.61;;;3.68;80.50
62703;BME280;66022;50.448;18.122;2023-02-19T21:32:03;99769.89;;;3.67;79.82
62703;BME280;66022;50.448;18.122;2023-02-19T21:36:17;99774.10;;;3.66;79.93
62703;BME280;66022;50.448;18.122;2023-02-19T21:40:31;99778.56;;;3.63;79.97
62703;BME280;66022;50.448;18.122;2023-02-19T21:44:45;99783.61;;;3.61;79.85
62703;BME280;66022;50.448;18.122;2023-02-19T21:48:59;99788.79;;;3.52;79.92
62703;BME280;66022;50.448;18.122;2023-02-19T21:53:13;99793.64;;;3.48;79.04
62703;BME280;66022;50.448;18.122;2023-02-19T21:57:27;99797.15;;;3.39;79.80
62703;BME280;66022;50.448;18.122;2023-02-19T22:01:41;99800.13;;;3.33;79.39
62703;BME280;66022;50.448;18.122;2023-02-19T22:05:55;99802.54;;;3.27;79.71
62703;BME280;66022;50.448;18.122;2023-02-19T22:10:09;99806.41;;;3.21;80.04
62703;BME280;66022;50.448;18.122;2023-02-19T22:14:23;99810.33;;;3.17;79.76
62703;BME280;66022;50.448;18.122;2023-02-19T22:18:37;99813.31;;;3.11;80.54
62703;BME280;66022;50.448;18.122;2023-02-19T22:22:51;99817.39;;;3.08;80.43
62703;BME280;66022;50.448;18.122;2023-02-19T22:27:05;99822.00;;;2.99;80.71
62703;BME280;66022;50.448;18.122;2023-02-19T22:31:20;99827.25;;;2.96;79.73
62703;BME280;66022;50.448;18.122;2023-02-19T22:35:34;99831.33;;;2.91;80.25
62703;BME280;66022;50.448;18.122;2023-02-19T22:39:47;99834.77;;;2.84;80.16
62703;BME280;66022;50.448;18.122;2023-02-19T22:44:01;99840.52;;;2.78;80.34
62703;BME280;66022;50.448;18.122;2023-02-19T22:48:15;99846.19;;;2.69;81.52
62703;BME280;66022;50.448;18.122;2023-02-19T22:52:29;99851.84;;;2.65;81.19
62703;BME280;66022;50.448;18.122;2023-02-19T22:56:43;99855.31;;;2.57;81.99
62703;BME280;66022;50.448;18.122;2023-02-19T23:00:57;99858.89;;;2.53;81.49
62703;BME280;66022;50.448;18.122;2023-02-19T23:05:11;99862.83;;;2.51;81.51
62703;BME280;66022;50.448;18.122;2023-02-19T23:09:26;99866.36;;;2.48;81.75
62703;BME280;66022;50.448;18.122;2023-02-19T23:13:40;99869.97;;;2.51;81.42
62703;BME280;66022;50.448;18.122;2023-02-19T23:17:53;99871.62;;;2.51;83.20
62703;BME280;66022;50.448;18.122;2023-02-19T23:22:07;99874.85;;;2.55;81.38
62703;BME280;66022;50.448;18.122;2023-02-19T23:26:21;99876.92;;;2.58;81.11
62703;BME280;66022;50.448;18.122;2023-02-19T23:30:35;99878.40;;;2.61;80.87
62703;BME280;66022;50.448;18.122;2023-02-19T23:34:49;99878.44;;;2.64;80.55
62703;BME280;66022;50.448;18.122;2023-02-19T23:39:03;99876.20;;;2.63;81.36
62703;BME280;66022;50.448;18.122;2023-02-19T23:43:17;99872.45;;;2.68;80.97
62703;BME280;66022;50.448;18.122;2023-02-19T23:47:31;99868.92;;;2.69;82.30
62703;BME280;66022;50.448;18.122;2023-02-19T23:51:45;99866.14;;;2.72;80.21
62703;BME280;66022;50.448;18.122;2023-02-19T23:55:59;99862.48;;;2.71;80.53
